Ride Results

LoVERS Hop To It (19-04-2019)
Ride distance: 80.0 km

Outcomes - LoVERS Hop To It (19-04-2019)
Division No. of Entries Retired / DNE Completed Withdrawn Ineligible V/O Percentage Completed
HW 9 - 7 - - 2 77.78%
MW 21 - 17 1 - 3 80.95%
LW 22 - 18 - - 4 81.82%
JN 13 - 12 - - 1 92.31%
Totals 65 - 54 1 - 10 83.08%
Results - LoVERS Hop To It (19-04-2019)
No. Rider Horse Place Time Leg Speeds Total
Km/Hr
H/R bpm
Heavyweight
42 Dan Winkel Shardell Azeem 1 (BC) 4:02:00 20.5, 19.1 19.83 36, 47, 54 (Avg:50)
37 Matthew Gadsby Maximus Ra 2 5:49:00 13.5, 13.9 13.75 37, 47, 53 (Avg:50)
57 Angela Waldock Gundabah Fair Lady 3 5:57:00 13.4, 13.4 13.45 51, 48, 58 (Avg:53)
39 Gary Surch Gabri-El El Malek 4 6:58:00 12.3, 10.7 11.48 35, 45, 46 (Avg:45)
52 Lester Pahl Hill Stone Dakirah 5 7:01:00 11.2, 11.5 11.40 38, 41, 44 (Avg:42)
1 Peter McDonald Wollumbin Rhumba 6 7:16:00 11.8, 10.3 11.01 44, 43, 54 (Avg:48)
27 Tracy Kirby Timbertop Little Miss Princess 7 7:34:00 11.4, 9.7 10.57 34, 44, 54 (Avg:49)
71 Meg Butler Melcot Gone With The Wind Lame L1 0:00:00 11.5 - 42, 43 (Avg:43)
64 Leanne McLaughlin Ramalea Petria Lame L1 0:00:00 17.3 - 40, 44 (Avg:44)
Middleweight
25 Rachel Brown Houdini 1 4:52:00 16.9, 15.9 16.44 40, 44, 58 (Avg:51)
2 Akhmed Pshunov Cameo Mazquerade 2 4:56:00 16.2, 16.2 16.22 42, 48, 55 (Avg:51)
59 Heather Parry Flemingo Aragon 3 5:16:00 14.9, 15.3 15.19 43, 50, 49 (Avg:49)
34 John Dugan Performance Park Illusion 4 (BC) 5:20:00 15.7, 14.2 15.00 34, 45, 44 (Avg:44)
36 Gina Matthews Monarchs Knight 5 5:57:00 13.5, 13.3 13.45 38, 47, 54 (Avg:50)
58 Fiona Fenech Aqaba Bronson 6 5:57:30 13.4, 13.3 13.43 45, 49, 59 (Avg:54)
14 Samantha Yates Die Kinder Mercedes 7 6:12:00 12.8, 12.9 12.90 44, 44, 47 (Avg:45)
17 Antoine Durand Gheerulla Tula 8 6:22:00 12.9, 12.2 12.57 38, 44, 53 (Avg:48)
69 Kaylyn Free Kirra 9 6:33:00 12.5, 11.8 12.21 33, 44, 45 (Avg:44)
4 Dallas Blakely Ahnoosa 10 6:48:00 13.2, 10.5 11.76 36, 44, 47 (Avg:45)
54 Sarah Fraser O'Brien Beaudacious te 11 6:57:00 11.3, 11.6 11.51 33, 40, 42 (Avg:41)
40 Jo Bailey Churinga River of Dreams 12 7:12:00 11.5, 10.6 11.11 37, 46, 44 (Avg:45)
5 Angela Head Jazda Conan 13 7:18:00 11.2, 10.6 10.96 38, 45, 50 (Avg:47)
31 Jenny Noffke Halimas Fayeek 13 7:18:00 11.2, 10.6 10.96 40, 41, 50 (Avg:45)
7 Ellie Hill Wyandra 15 7:34:00 11.2, 9.9 10.57 38, 46, 48 (Avg:47)
22 Ken Moir Moir's Mac 15 7:34:00 11.2, 9.9 10.57 40, 46, 48 (Avg:47)
44 Kane Kelso PVE Remington 17 8:39:00 13.3, 7.0 9.25 42, 46, 45 (Avg:45)
26 Lizzy Cleland Zara Farm Zena Lame L2 0:00:00 11.5, 11.9 - 29, 42, 42 (Avg:42)
15 El MacDonald Die Kinder Embers Lame L2 0:00:00 12.8, 12.9 - 40, 42, 41 (Avg:41)
11 Peter Holmes Matrix Maker Gall or injury L1 0:00:00 13.1 - 33, 44 (Avg:44)
8 Matthew Sample Stirling's Genevieve W/D after vetting P/R 0:00:00 - - 32
Lightweight
43 Karen Winkel Ranek Boz 1 (BC) 4:02:00 20.5, 19.1 19.83 40, 47, 50 (Avg:48)
55 Ute Jordan Glenewan Blitz 2 4:26:00 19.0, 17.1 18.05 37, 43, 46 (Avg:44)
56 Belinda Redhead Golden Thunder 2 4:26:00 19.0, 17.1 18.05 33, 41, 42 (Avg:41)
20 Maeve Paten Shanelli-Park Phoenix 4 4:27:30 18.6, 17.3 17.94 37, 48, 49 (Avg:48)
21 Shelley Chapman Sahala Astronomer 5 4:28:00 18.6, 17.2 17.91 29, 43, 51 (Avg:47)
16 Floor Braunius Cedar Ridge Lyric 6 4:53:00 16.4, 16.3 16.38 35, 46, 46 (Avg:46)
10 Candice Gurtner Briallyn Panache 7 5:19:00 14.8, 15.2 15.05 35, 47, 49 (Avg:48)
3 Karen Fields Woodbourne Chisum 8 5:21:00 14.5, 15.3 14.95 42, 46, 55 (Avg:50)
28 Tamara Gibson Dunbar Magnolia 9 5:46:00 13.6, 14.1 13.87 37, 37, 42 (Avg:39)
32 Ashleigh Grassick Dunbar Caspian 9 5:46:00 13.6, 14.1 13.87 38, 41, 48 (Avg:44)
38 Mindy Davies Shemesh El Miraj 11 5:49:00 13.5, 13.9 13.75 46, 40, 44 (Avg:42)
9 Nikki Scott Sterling's Safari 12 6:12:00 13.0, 12.7 12.90 35, 43, 42 (Avg:42)
62 Stephanie Malmborg Wattle Tree Amir 13 6:18:00 14.3, 11.3 12.70 48, 53, 56 (Avg:54)
63 Janelle Taylor Elite Samaree 14 6:21:00 13.3, 11.9 12.60 38, 46, 52 (Avg:49)
13 Jessie Mihocek Brookleigh Danu 15 6:22:00 12.9, 12.2 12.57 45, 40, 44 (Avg:42)
47 Nez Lewis Joey The Patch 16 6:31:00 12.8, 11.7 12.28 40, 43, 55 (Avg:49)
19 Jorja McInnes Awarran Park Escort Star 17 6:53:00 12.4, 10.9 11.62 42, 47, 45 (Avg:46)
35 Amanda Powell Zenith Park Qadir 17 6:53:00 12.4, 10.9 11.62 42, 46, 46 (Avg:46)
12 Renae Chapman Brookleigh Sage Lame L2 0:00:00 12.9, 12.2 - 38, 45, 48 (Avg:46)
66 Virginia Dale Jum Jum Spirit Lame L2 0:00:00 11.9, 10.9 - 40, 46, 51 (Avg:48)
60 Clare Fleming Flemingo Bomsaway Lame L2 0:00:00 14.9, 15.3 - 30, 39, 43 (Avg:41)
45 Renee Kelso Bonnie Doon Shamal Lame L1 0:00:00 13.3 - 44, 41, 52 (Avg:46)
Junior
23 Zac Sample Brookleigh Milo 1 (BC) 4:53:00 16.4, 16.3 16.38 40, 45, 47 (Avg:46)
65 Chloe Bolliger Ramalea Samantha 2 5:06:00 17.3, 14.2 15.69 35, 43, 48 (Avg:45)
61 Scarlet McQueen Flemingo Bombastic 3 5:16:00 14.9, 15.3 15.19 37, 51, 56 (Avg:53)
33 Adi Imray De-Sharvarll El Dakar 4 5:20:00 15.7, 14.2 15.00 33, 39, 40 (Avg:39)
18 Ben Hoey Pocket Rocket Patience 5 5:34:00 14.0, 14.7 14.37 44, 47, 52 (Avg:49)
67 Emily Bell Katushka 6 6:33:00 12.6, 11.8 12.21 35, 47, 45 (Avg:46)
24 Tayla Innes Lindall Farouk 7 6:56:00 11.9, 11.1 11.54 29, 42, 49 (Avg:45)
50 Piper O'Brien Envious te 8 6:57:00 11.3, 11.6 11.51 31, 36, 42 (Avg:39)
49 Charlize Renner Sh'Harriet te 8 6:57:00 11.3, 11.6 11.51 32, 41, 46 (Avg:43)
48 Louis Ryan Twilight te 8 6:57:00 11.3, 11.6 11.51 32, 52, 44 (Avg:48)
46 Emily Picker Hill Stone Baraq 11 7:01:00 11.2, 11.5 11.40 40, 43, 44 (Avg:43)
70 Elly Butler Claralee Honeymoon 12 7:12:00 11.5, 10.6 11.11 37, 42, 48 (Avg:45)
6 Lexi Webb La-Battist Coral Lame L2 0:00:00 18.1, 17.7 - 44, 48, 53 (Avg:50)